createdAt,value
2022-09-05T00:02:06.734Z,6.3
2022-09-05T00:08:04.674Z,7
2022-09-05T00:13:55.147Z,5.9
2022-09-05T00:32:01.455Z,5.3
2022-09-05T00:37:49.586Z,5.5
2022-09-05T00:43:40.112Z,5.2
2022-09-05T00:49:31.347Z,8.6
2022-09-05T00:55:22.147Z,5.2
2022-09-05T01:01:27.220Z,4.7
2022-09-05T01:07:18.123Z,6.3
2022-09-05T01:13:08.904Z,5.5
2022-09-05T01:18:59.896Z,4.8
2022-09-05T01:24:51.049Z,6.2
2022-09-05T01:30:41.701Z,6.2
2022-09-05T01:36:32.198Z,5.6
2022-09-05T01:42:23.259Z,4.6
2022-09-05T01:48:14.752Z,5.3
2022-09-05T01:54:05.926Z,6.3
2022-09-05T02:00:14.790Z,5.8
2022-09-05T02:06:05.921Z,6.3
2022-09-05T02:11:57.904Z,6.7
2022-09-05T02:17:56.059Z,5.8
2022-09-05T02:23:49.809Z,6.5
2022-09-05T02:29:55.062Z,5
2022-09-05T02:36:13.700Z,6.6
2022-09-05T02:45:38.633Z,5.1
2022-09-05T02:58:13.526Z,6.2
2022-09-05T03:04:14.882Z,6.3
2022-09-05T03:10:09.847Z,5.8
2022-09-05T03:16:08.350Z,5.7
2022-09-05T03:22:05.551Z,6.5
2022-09-05T03:27:56.513Z,6.1
2022-09-05T03:33:55.935Z,5.9
2022-09-05T03:39:52.807Z,6.7
2022-09-05T03:45:50.103Z,7.5
2022-09-05T04:08:36.844Z,7.7
2022-09-05T04:52:04.168Z,8.4
2022-09-05T04:57:57.826Z,7.8
2022-09-05T05:06:48.820Z,8.2
2022-09-05T05:19:07.185Z,8.2
2022-09-05T05:25:20.409Z,9.7
2022-09-05T05:31:16.903Z,8.3
2022-09-05T05:43:59.643Z,13
2022-09-05T05:49:57.049Z,10
2022-09-05T05:56:03.469Z,7.6
2022-09-05T06:14:53.789Z,7.2
2022-09-05T06:22:23.123Z,9.3
2022-09-05T06:28:24.815Z,7.9
2022-09-05T06:34:40.620Z,8.3
2022-09-05T06:40:37.607Z,7.9
2022-09-05T06:47:37.270Z,8
2022-09-05T06:53:27.484Z,6.1
2022-09-05T06:59:19.539Z,5.6
2022-09-05T07:05:49.319Z,5.2
2022-09-05T07:11:44.267Z,6.2
2022-09-05T07:18:11.296Z,5.4
2022-09-05T07:24:16.954Z,5.7
2022-09-05T07:30:42.227Z,7.1
2022-09-05T07:36:34.136Z,4.8
2022-09-05T07:42:26.537Z,6.9
2022-09-05T07:48:23.960Z,6.4
2022-09-05T07:57:52.943Z,5.8
2022-09-05T08:03:40.936Z,9.2
2022-09-05T08:10:18.983Z,3.9
2022-09-05T08:16:23.059Z,4.1
2022-09-05T08:22:54.093Z,5.7
2022-09-05T08:29:04.481Z,4
2022-09-05T08:34:53.778Z,4.8
2022-09-05T08:40:44.340Z,4.3
2022-09-05T08:46:55.521Z,4.8
2022-09-05T08:52:47.863Z,14.2
2022-09-05T08:58:44.072Z,3.7
2022-09-05T09:05:15.777Z,3.4
2022-09-05T09:11:10.084Z,2.5
2022-09-05T09:17:01.710Z,3.9
2022-09-05T09:22:53.522Z,5.3
2022-09-05T09:28:55.953Z,3.8
2022-09-05T09:35:23.554Z,4
2022-09-05T09:41:12.704Z,6
2022-09-05T09:47:04.954Z,3.2
2022-09-05T09:52:56.814Z,4.2
2022-09-05T09:58:48.206Z,4.2
2022-09-05T10:11:56.536Z,3
2022-09-05T10:17:44.989Z,5.1
2022-09-05T10:23:35.354Z,4.2
2022-09-05T10:29:43.041Z,3.3
2022-09-05T10:35:37.353Z,3.8
2022-09-05T10:41:30.670Z,2.6
2022-09-05T10:47:22.207Z,3.7
2022-09-05T10:53:20.846Z,1.7
2022-09-05T11:02:52.553Z,1.7
2022-09-05T11:08:45.661Z,1.7
2022-09-05T11:14:37.513Z,2.5
2022-09-05T11:20:42.425Z,2.8
2022-09-05T11:26:32.196Z,2
2022-09-05T11:41:01.281Z,2.5
2022-09-05T11:47:36.272Z,4.1
2022-09-05T11:53:31.633Z,2.8
2022-09-05T11:59:38.195Z,1.7
2022-09-05T12:42:37.202Z,2.2
2022-09-05T12:48:45.183Z,2.3
2022-09-05T12:54:39.272Z,2.9
2022-09-05T13:04:18.358Z,2
2022-09-05T13:15:23.465Z,1.5
2022-09-05T13:21:09.729Z,7.7
2022-09-05T13:26:59.533Z,1.6
2022-09-05T13:38:54.052Z,2.3
2022-09-05T13:44:40.409Z,2.2
2022-09-05T13:50:31.658Z,2.2
2022-09-05T13:56:22.933Z,2.6
2022-09-05T14:02:32.438Z,3
2022-09-05T14:08:22.951Z,2.7
2022-09-05T14:14:16.602Z,2.6
2022-09-05T14:20:55.814Z,1.8
2022-09-05T14:26:46.276Z,1.9
2022-09-05T14:38:18.144Z,2.8
2022-09-05T14:44:06.929Z,2
2022-09-05T14:49:57.041Z,2.3
2022-09-05T14:55:52.649Z,3.6
2022-09-05T15:12:51.912Z,2.6
2022-09-05T15:18:44.448Z,2.3
2022-09-05T15:24:37.689Z,3.2
2022-09-05T15:30:39.685Z,2
2022-09-05T15:36:28.730Z,3.9
2022-09-05T15:42:18.692Z,2.8
2022-09-05T15:48:09.824Z,2
2022-09-05T15:54:04.966Z,2.2
2022-09-05T16:00:05.041Z,2.4
2022-09-05T16:12:16.140Z,2.6
2022-09-05T16:23:47.450Z,2.1
2022-09-05T16:29:34.279Z,1.7
2022-09-05T16:35:32.455Z,2.8
2022-09-05T16:41:30.075Z,2.3
2022-09-05T16:47:19.626Z,2.8
2022-09-05T16:53:35.997Z,3
2022-09-05T16:59:33.155Z,3.6
2022-09-05T17:05:23.920Z,3.2
2022-09-05T17:11:44.407Z,2.4
2022-09-05T17:18:33.497Z,3.4
2022-09-05T17:31:58.109Z,5.6
2022-09-05T17:37:45.393Z,4.1
2022-09-05T17:43:41.481Z,2.6
2022-09-05T17:49:33.790Z,10.2
2022-09-05T17:55:23.350Z,10.3
2022-09-05T18:01:15.868Z,108.5
2022-09-05T18:07:10.276Z,85
2022-09-05T18:13:38.786Z,104.8
2022-09-05T18:19:45.971Z,139.1
2022-09-05T18:25:44.852Z,134.1
2022-09-05T18:31:53.435Z,96.8
2022-09-05T18:37:51.535Z,51.4
2022-09-05T18:44:22.168Z,76.6
2022-09-05T18:50:35.660Z,30.6
2022-09-05T18:56:32.651Z,36.7
2022-09-05T19:03:07.555Z,70.3
2022-09-05T19:08:56.524Z,42.7
2022-09-05T19:14:49.109Z,12.8
2022-09-05T19:20:44.845Z,22.2
2022-09-05T19:26:34.873Z,15.2
2022-09-05T19:37:50.570Z,9.3
2022-09-05T19:48:14.153Z,12.1
2022-09-05T19:54:09.838Z,16.6
2022-09-05T19:59:59.671Z,12.9
2022-09-05T20:05:49.766Z,3.6
2022-09-05T20:11:50.891Z,6.3
2022-09-05T20:17:40.395Z,4
2022-09-05T20:23:31.358Z,3.4
2022-09-05T20:29:57.208Z,4
2022-09-05T20:43:41.371Z,4.4
2022-09-05T20:54:44.986Z,3.3
2022-09-05T21:00:30.880Z,15.1
2022-09-05T21:07:30.493Z,13
2022-09-05T21:13:20.362Z,6.1
2022-09-05T21:19:11.049Z,6.6
2022-09-05T21:25:02.000Z,3
2022-09-05T21:30:53.364Z,4
2022-09-05T21:36:47.253Z,4.7
2022-09-05T21:47:57.444Z,6
2022-09-05T21:59:50.550Z,4.7
2022-09-05T22:05:39.566Z,6.5
2022-09-05T22:11:31.168Z,4.7
2022-09-05T22:17:22.915Z,6.7
2022-09-05T22:23:13.793Z,4.9
2022-09-05T22:29:04.945Z,4.3
2022-09-05T22:36:07.203Z,6.2
2022-09-05T22:42:12.678Z,4.6
2022-09-05T22:48:06.883Z,3.7
2022-09-05T22:54:05.306Z,5.5
2022-09-05T23:00:13.428Z,5.8
2022-09-05T23:06:05.945Z,6.2
2022-09-05T23:11:59.101Z,5.6
2022-09-05T23:18:07.838Z,3.4
2022-09-05T23:24:20.691Z,5.8
2022-09-05T23:30:19.743Z,4
2022-09-05T23:36:15.071Z,4.8
2022-09-05T23:42:05.955Z,4.6
2022-09-05T23:47:58.821Z,4.1
2022-09-05T23:53:58.493Z,3.4
2022-09-05T23:59:58.288Z,5.4
